Time;durP1;ratioP1;P1;durP2;ratioP2;P2;SDS_P1;SDS_P2;PMS_P1;PMS_P2;Temp;Humidity;BMP_temperature;BMP_pressure;BME280_temperature;BME280_humidity;BME280_pressure;Samples;Min_cycle;Max_cycle;Signal;HPM_P1;HPM_P2
2021/07/03 00:01:04;;;;;;;15.30;10.68;;;;;;;16.34;88.98;100870.25;5063082;28;20060;-69
2021/07/03 00:03:32;;;;;;;16.67;11.02;;;;;;;16.17;90.16;100876.09;5049355;28;20062;-69
2021/07/03 00:05:59;;;;;;;13.75;10.68;;;;;;;16.30;90.66;100875.94;5066224;28;20066;-68
2021/07/03 00:08:28;;;;;;;13.75;11.13;;;;;;;16.27;90.40;100876.22;5068370;28;20047;-69
2021/07/03 00:10:56;;;;;;;14.05;10.80;;;;;;;16.13;90.93;100885.25;5047335;28;20064;-71
2021/07/03 00:13:24;;;;;;;16.75;10.68;;;;;;;16.14;91.86;100887.78;5066420;28;20070;-70
2021/07/03 00:15:52;;;;;;;14.20;11.27;;;;;;;16.13;91.42;100878.13;5065624;28;20052;-70
2021/07/03 00:18:20;;;;;;;18.25;13.02;;;;;;;16.04;92.73;100894.78;5050334;28;20044;-71
2021/07/03 00:20:47;;;;;;;17.50;11.40;;;;;;;16.11;92.38;100893.31;5049544;28;20052;-69
2021/07/03 00:23:15;;;;;;;16.17;11.68;;;;;;;15.97;93.26;100893.56;5064261;28;20068;-70
2021/07/03 00:25:42;;;;;;;14.73;12.05;;;;;;;15.94;93.41;100892.00;5066556;28;20045;-69
2021/07/03 00:28:09;;;;;;;15.00;11.38;;;;;;;15.99;93.52;100890.81;5037608;28;20044;-69
2021/07/03 00:30:37;;;;;;;20.70;12.30;;;;;;;15.91;93.85;100892.22;5060968;28;20048;-69
2021/07/03 00:33:04;;;;;;;17.58;11.70;;;;;;;16.02;94.09;100894.03;5069078;28;20561;-69
2021/07/03 00:35:32;;;;;;;18.67;13.70;;;;;;;15.97;94.09;100892.72;5056805;28;20053;-69
2021/07/03 00:37:59;;;;;;;18.92;13.07;;;;;;;15.89;94.59;100888.81;5055989;28;20072;-69
2021/07/03 00:40:28;;;;;;;19.30;12.98;;;;;;;15.86;95.01;100889.09;5067855;28;20048;-70
2021/07/03 00:42:55;;;;;;;20.17;13.25;;;;;;;15.93;95.12;100900.06;5078802;28;20056;-69
2021/07/03 00:45:23;;;;;;;17.70;13.68;;;;;;;16.05;94.54;100899.13;5064292;28;20497;-70
2021/07/03 00:47:51;;;;;;;17.48;13.48;;;;;;;16.00;94.60;100908.41;5068031;28;20127;-69
2021/07/03 00:50:18;;;;;;;21.77;13.65;;;;;;;16.05;95.22;100901.78;5072643;28;20051;-69
2021/07/03 00:52:46;;;;;;;22.35;13.07;;;;;;;16.01;95.48;100902.97;5057035;28;20053;-69
2021/07/03 00:55:16;;;;;;;21.42;13.80;;;;;;;16.10;94.93;100896.94;5054191;28;20522;-69
2021/07/03 00:57:44;;;;;;;15.55;13.80;;;;;;;16.20;94.25;100891.75;5074300;28;20059;-70
2021/07/03 01:00:13;;;;;;;18.00;13.65;;;;;;;16.20;94.23;100889.94;5049698;28;20058;-70
2021/07/03 01:02:40;;;;;;;17.58;13.65;;;;;;;16.20;93.87;100892.59;5035664;28;20055;-70
2021/07/03 01:05:09;;;;;;;20.63;14.15;;;;;;;16.23;94.17;100890.69;5048149;28;20146;-69
2021/07/03 01:07:37;;;;;;;18.65;15.70;;;;;;;16.19;93.72;100892.75;5065283;28;20055;-69
2021/07/03 01:10:06;;;;;;;21.10;14.35;;;;;;;16.20;94.01;100884.63;5067336;28;20058;-69
2021/07/03 01:12:33;;;;;;;22.38;14.55;;;;;;;16.17;94.21;100895.53;5051786;28;20059;-70
2021/07/03 01:15:01;;;;;;;21.52;13.38;;;;;;;16.15;94.32;100894.78;5067715;28;20059;-70
2021/07/03 01:17:28;;;;;;;23.80;16.40;;;;;;;16.06;95.31;100894.66;5048340;28;20053;-69
2021/07/03 01:19:56;;;;;;;23.23;15.80;;;;;;;16.19;94.28;100890.91;5065418;28;20040;-69
2021/07/03 01:22:23;;;;;;;20.95;15.60;;;;;;;16.06;94.92;100895.50;5062798;28;20052;-69
2021/07/03 01:24:50;;;;;;;22.50;15.57;;;;;;;16.07;94.84;100899.84;5066171;28;20059;-69
2021/07/03 01:27:18;;;;;;;22.38;15.50;;;;;;;15.98;95.52;100884.63;5065896;28;20066;-70
2021/07/03 01:29:45;;;;;;;26.85;15.15;;;;;;;16.00;95.74;100880.06;5065021;28;20052;-70
2021/07/03 01:32:13;;;;;;;23.48;16.38;;;;;;;15.94;95.90;100880.53;5065678;28;20059;-69
2021/07/03 01:34:40;;;;;;;18.90;15.43;;;;;;;15.87;96.25;100884.63;5065655;28;20044;-70
2021/07/03 01:37:08;;;;;;;23.77;16.05;;;;;;;15.81;97.16;100885.94;5064994;28;20055;-69
2021/07/03 01:39:35;;;;;;;20.52;15.65;;;;;;;15.77;97.37;100880.97;5065469;28;20048;-69
2021/07/03 01:42:03;;;;;;;18.05;15.02;;;;;;;15.65;98.08;100880.09;5070914;28;20052;-70
2021/07/03 01:44:30;;;;;;;24.27;16.67;;;;;;;15.62;98.77;100881.13;5065388;28;20060;-68
2021/07/03 01:46:59;;;;;;;22.05;17.00;;;;;;;15.58;98.61;100885.00;5068848;28;20061;-69
2021/07/03 01:49:28;;;;;;;18.05;16.15;;;;;;;15.56;98.91;100883.41;5059754;28;20037;-68
2021/07/03 01:51:55;;;;;;;20.85;16.63;;;;;;;15.49;99.49;100882.19;5065510;28;20082;-69
2021/07/03 01:54:23;;;;;;;21.52;17.90;;;;;;;15.52;99.89;100880.16;5065099;28;20044;-69
2021/07/03 01:56:59;;;;;;;21.10;16.58;;;;;;;15.48;99.94;100877.84;5046413;28;20132;-68
2021/07/03 01:59:31;;;;;;;23.58;17.33;;;;;;;15.41;100.00;100870.34;5045747;28;20044;-68
2021/07/03 02:02:01;;;;;;;21.42;16.17;;;;;;;15.38;100.00;100875.03;5064656;28;20053;-69
2021/07/03 02:04:29;;;;;;;25.92;17.75;;;;;;;15.32;100.00;100878.16;5064705;28;20052;-70
2021/07/03 02:06:57;;;;;;;27.40;17.08;;;;;;;15.35;100.00;100873.44;5068931;28;20059;-70
2021/07/03 02:09:24;;;;;;;20.85;15.32;;;;;;;15.41;100.00;100870.34;5050909;28;20534;-68
2021/07/03 02:11:52;;;;;;;24.95;17.73;;;;;;;15.39;100.00;100874.91;5067624;28;20048;-70
2021/07/03 02:14:19;;;;;;;21.10;17.45;;;;;;;15.35;100.00;100872.59;5064005;28;20044;-68
2021/07/03 02:16:46;;;;;;;25.38;19.05;;;;;;;15.25;100.00;100866.31;5059149;28;20048;-69
2021/07/03 02:19:15;;;;;;;21.73;16.73;;;;;;;15.22;100.00;100869.19;5065504;28;20070;-69
2021/07/03 02:21:42;;;;;;;21.02;17.58;;;;;;;15.23;100.00;100868.25;5045470;28;20628;-69
2021/07/03 02:24:09;;;;;;;26.63;18.95;;;;;;;15.31;100.00;100864.06;5058450;28;20059;-69
2021/07/03 02:26:37;;;;;;;25.52;18.83;;;;;;;15.11;100.00;100867.34;5065580;28;20434;-69
2021/07/03 02:29:04;;;;;;;25.23;19.45;;;;;;;15.09;100.00;100871.91;5047408;28;20144;-69
2021/07/03 02:31:32;;;;;;;25.20;19.40;;;;;;;14.96;100.00;100871.97;5063134;28;20055;-69
2021/07/03 02:33:59;;;;;;;25.55;19.50;;;;;;;14.91;100.00;100867.00;5046963;28;20044;-69
2021/07/03 02:36:27;;;;;;;24.33;18.85;;;;;;;15.00;100.00;100865.47;5045266;28;20039;-69
2021/07/03 02:38:54;;;;;;;30.25;19.85;;;;;;;14.99;100.00;100866.41;5064697;28;20049;-69
2021/07/03 02:41:22;;;;;;;26.13;19.15;;;;;;;14.93;100.00;100861.56;5066515;28;20044;-69
2021/07/03 02:43:49;;;;;;;23.13;17.45;;;;;;;14.94;100.00;100868.56;5065322;28;20644;-69
2021/07/03 02:46:17;;;;;;;26.67;19.58;;;;;;;14.92;100.00;100866.03;5066379;28;20052;-70
2021/07/03 02:48:44;;;;;;;23.15;19.17;;;;;;;14.97;100.00;100859.56;5065937;28;20053;-69
2021/07/03 02:51:12;;;;;;;29.98;19.50;;;;;;;14.99;100.00;100858.47;5065283;28;20063;-70
2021/07/03 02:53:39;;;;;;;26.70;19.55;;;;;;;14.96;100.00;100861.38;5065958;28;20049;-70
2021/07/03 02:56:06;;;;;;;23.75;19.38;;;;;;;14.97;100.00;100857.75;5062696;28;20054;-68
2021/07/03 02:58:34;;;;;;;26.23;20.10;;;;;;;14.95;100.00;100857.03;5064794;28;20063;-69
2021/07/03 03:01:02;;;;;;;22.73;19.80;;;;;;;14.90;100.00;100859.16;5061510;28;20047;-69
2021/07/03 03:03:31;;;;;;;24.83;19.25;;;;;;;14.97;100.00;100872.81;5065545;28;20048;-68
2021/07/03 03:05:58;;;;;;;30.45;21.23;;;;;;;15.01;100.00;100864.53;5063452;28;20059;-69
2021/07/03 03:08:25;;;;;;;22.55;19.30;;;;;;;14.96;100.00;100860.53;5044174;28;20075;-69
2021/07/03 03:10:53;;;;;;;23.23;18.90;;;;;;;14.99;100.00;100860.28;5062203;28;20056;-70
2021/07/03 03:13:20;;;;;;;27.50;19.52;;;;;;;15.00;100.00;100862.00;5065619;28;20048;-69
2021/07/03 03:15:48;;;;;;;26.13;20.63;;;;;;;14.91;100.00;100853.75;5064481;28;20058;-70
2021/07/03 03:18:15;;;;;;;28.70;21.15;;;;;;;14.92;100.00;100862.53;5049431;28;20131;-70
2021/07/03 03:20:43;;;;;;;24.92;20.27;;;;;;;14.87;100.00;100864.69;5064632;28;20048;-70
2021/07/03 03:23:10;;;;;;;26.30;20.10;;;;;;;14.87;100.00;100857.59;5049651;28;20063;-70
2021/07/03 03:25:38;;;;;;;34.13;23.05;;;;;;;14.93;100.00;100867.72;5069191;28;20052;-70
2021/07/03 03:28:05;;;;;;;28.02;21.65;;;;;;;14.99;100.00;100860.28;5069300;28;20595;-69
2021/07/03 03:30:33;;;;;;;31.15;22.13;;;;;;;14.98;100.00;100869.19;5067093;28;20539;-70
2021/07/03 03:33:01;;;;;;;29.02;21.42;;;;;;;14.98;100.00;100869.19;5069870;28;20044;-69
2021/07/03 03:35:29;;;;;;;24.90;20.52;;;;;;;14.96;100.00;100873.78;5068112;28;20053;-69
2021/07/03 03:37:56;;;;;;;28.95;21.08;;;;;;;15.07;100.00;100868.50;5072584;28;20059;-69
2021/07/03 03:40:26;;;;;;;29.05;20.40;;;;;;;15.11;100.00;100878.78;5067932;28;20043;-70
2021/07/03 03:42:54;;;;;;;27.80;19.88;;;;;;;15.14;100.00;100877.72;5067217;28;20056;-70
2021/07/03 03:45:22;;;;;;;33.47;20.73;;;;;;;15.13;100.00;100879.53;5049585;28;20183;-69
2021/07/03 03:47:50;;;;;;;29.95;19.85;;;;;;;15.18;100.00;100879.19;5071827;28;20491;-70
2021/07/03 03:50:18;;;;;;;27.20;20.27;;;;;;;15.29;100.00;100879.22;5050467;28;20048;-70
2021/07/03 03:52:45;;;;;;;29.92;22.27;;;;;;;15.27;100.00;100875.84;5056846;28;20056;-69
2021/07/03 03:55:12;;;;;;;29.52;19.95;;;;;;;15.34;100.00;100876.22;5074922;28;20049;-68
2021/07/03 03:57:40;;;;;;;32.97;21.58;;;;;;;15.32;100.00;100880.81;5085492;28;20072;-70
2021/07/03 04:00:08;;;;;;;32.35;20.15;;;;;;;15.40;100.00;100884.59;5076068;28;20709;-69
2021/07/03 04:02:35;;;;;;;25.50;18.58;;;;;;;15.60;99.35;100879.56;5052537;28;20064;-68
2021/07/03 04:05:05;;;;;;;28.25;18.15;;;;;;;15.78;98.29;100875.56;5067087;28;20063;-70
2021/07/03 04:07:32;;;;;;;27.25;19.70;;;;;;;16.01;96.71;100880.91;5048801;28;20063;-69
2021/07/03 04:09:59;;;;;;;27.95;18.70;;;;;;;16.09;96.25;100873.19;5066839;28;20051;-68
2021/07/03 04:12:27;;;;;;;27.60;18.55;;;;;;;16.29;94.75;100869.78;5049747;28;20051;-69
2021/07/03 04:14:54;;;;;;;26.48;17.55;;;;;;;16.39;93.83;100865.47;5078850;28;20046;-69
2021/07/03 04:17:22;;;;;;;22.85;17.67;;;;;;;16.43;92.88;100866.88;5068432;28;20048;-69
2021/07/03 04:19:49;;;;;;;21.98;17.63;;;;;;;16.55;92.32;100870.38;5073068;28;20055;-69
2021/07/03 04:22:17;;;;;;;22.67;17.88;;;;;;;16.42;92.75;100865.19;5054320;28;20048;-69
2021/07/03 04:24:45;;;;;;;23.27;16.92;;;;;;;16.53;92.21;100859.03;5027792;28;20060;-69
2021/07/03 04:27:12;;;;;;;26.35;18.85;;;;;;;16.63;92.02;100861.81;5047550;28;20482;-69
2021/07/03 04:29:40;;;;;;;19.48;16.35;;;;;;;17.12;90.70;100866.66;5048481;28;20052;-69
2021/07/03 04:32:08;;;;;;;23.65;16.05;;;;;;;17.93;84.64;100869.66;5051102;28;20063;-69
2021/07/03 04:34:35;;;;;;;21.42;15.07;;;;;;;18.59;81.86;100859.38;5026469;28;20617;-69
2021/07/03 04:37:03;;;;;;;19.85;14.73;;;;;;;19.75;75.31;100866.66;5048895;28;20057;-69
2021/07/03 04:39:30;;;;;;;19.23;14.38;;;;;;;20.42;70.77;100865.56;5066093;28;20189;-70
2021/07/03 04:41:58;;;;;;;15.68;13.73;;;;;;;21.45;66.59;100858.16;5072828;28;20052;-69
2021/07/03 04:44:25;;;;;;;18.63;12.65;;;;;;;22.02;63.38;100860.38;5072242;28;20062;-69
2021/07/03 04:46:52;;;;;;;20.08;13.15;;;;;;;21.73;64.16;100857.00;5073979;28;20052;-69
2021/07/03 04:49:20;;;;;;;17.98;14.35;;;;;;;22.01;61.86;100859.53;5062920;28;20041;-68
2021/07/03 04:51:47;;;;;;;17.08;12.88;;;;;;;22.96;59.13;100852.22;5073626;28;20711;-69
2021/07/03 04:54:15;;;;;;;14.90;13.23;;;;;;;23.66;57.07;100857.16;5076576;28;20054;-69
2021/07/03 04:56:42;;;;;;;16.30;12.50;;;;;;;24.64;53.66;100857.72;5071029;28;20237;-70
2021/07/03 04:59:10;;;;;;;14.73;12.60;;;;;;;24.90;52.24;100856.53;5051607;28;20044;-69
2021/07/03 05:01:37;;;;;;;16.98;12.00;;;;;;;25.54;50.52;100858.97;5075831;28;20414;-70
2021/07/03 05:04:04;;;;;;;17.30;12.32;;;;;;;25.40;50.50;100856.03;5071434;28;20052;-69
2021/07/03 05:06:32;;;;;;;13.65;11.50;;;;;;;25.33;50.57;100862.31;5073033;28;20389;-69
2021/07/03 05:08:59;;;;;;;16.02;12.05;;;;;;;24.29;52.98;100861.69;5073962;28;20467;-70
2021/07/03 05:11:26;;;;;;;15.32;11.88;;;;;;;23.66;55.11;100873.28;5074495;28;20045;-69
2021/07/03 05:13:54;;;;;;;18.17;11.95;;;;;;;23.33;56.58;100867.06;5069216;28;20061;-69
2021/07/03 05:16:21;;;;;;;15.05;13.32;;;;;;;23.07;56.64;100861.81;5057441;28;20390;-68
2021/07/03 05:18:49;;;;;;;22.55;13.20;;;;;;;22.45;58.84;100868.31;5072517;28;20441;-67
2021/07/03 05:21:17;;;;;;;18.95;13.43;;;;;;;21.51;62.27;100862.03;5076147;28;20498;-70
2021/07/03 05:23:44;;;;;;;21.17;13.27;;;;;;;21.56;62.64;100865.09;5074418;28;20333;-69
2021/07/03 05:26:14;;;;;;;17.48;13.93;;;;;;;21.30;63.36;100868.53;5071214;28;20048;-69
2021/07/03 05:28:42;;;;;;;18.55;13.98;;;;;;;21.16;64.76;100866.38;5086263;28;20056;-69
2021/07/03 05:31:10;;;;;;;20.30;14.07;;;;;;;21.06;65.07;100865.63;5075065;28;20397;-69
2021/07/03 05:33:37;;;;;;;23.42;15.00;;;;;;;19.76;70.24;100873.66;5071539;28;20423;-69
2021/07/03 05:36:04;;;;;;;23.08;14.93;;;;;;;19.60;70.88;100870.72;5069142;28;20096;-68
2021/07/03 05:38:40;;;;;;;19.67;14.98;;;;;;;19.85;70.85;100874.63;5078870;28;20386;-69
2021/07/03 05:41:11;;;;;;;17.77;13.50;;;;;;;20.99;66.87;100860.06;5080099;28;20055;-69
2021/07/03 05:43:38;;;;;;;19.42;13.60;;;;;;;22.10;62.14;100871.97;5087176;28;20131;-68
2021/07/03 05:46:06;;;;;;;18.98;12.90;;;;;;;22.23;61.19;100875.09;5090276;28;20505;-70
2021/07/03 05:48:34;;;;;;;16.80;13.30;;;;;;;22.08;60.65;100879.34;5077287;28;20048;-70
2021/07/03 05:51:03;;;;;;;18.90;13.07;;;;;;;21.63;62.95;100877.72;5078371;28;20051;-70
2021/07/03 05:53:30;;;;;;;18.48;13.10;;;;;;;21.46;63.29;100875.91;5077805;28;20062;-69
2021/07/03 05:55:58;;;;;;;15.77;13.38;;;;;;;21.23;63.67;100870.16;5068722;28;20068;-69
2021/07/03 05:58:25;;;;;;;16.10;13.20;;;;;;;21.61;62.04;100874.34;5054900;28;20037;-68
2021/07/03 06:00:53;;;;;;;18.05;14.20;;;;;;;21.62;62.44;100875.19;5073517;28;20663;-70
2021/07/03 06:03:22;;;;;;;18.10;11.98;;;;;;;22.60;60.23;100873.06;5060633;28;20045;-70
2021/07/03 06:05:49;;;;;;;18.92;13.05;;;;;;;23.36;56.53;100872.06;5063435;28;20057;-70
2021/07/03 06:08:17;;;;;;;21.02;13.25;;;;;;;23.49;56.18;100873.25;5072217;28;20048;-69
2021/07/03 06:10:44;;;;;;;18.88;12.38;;;;;;;24.26;53.64;100870.09;5075775;28;20071;-69
2021/07/03 06:13:12;;;;;;;18.27;11.20;;;;;;;24.99;51.33;100869.78;5072232;28;20082;-68
2021/07/03 06:15:39;;;;;;;17.35;11.55;;;;;;;25.63;49.37;100864.09;5070567;28;20049;-70
2021/07/03 06:18:06;;;;;;;18.65;10.52;;;;;;;27.10;46.16;100865.03;5076232;28;20044;-70
2021/07/03 06:20:34;;;;;;;14.65;9.95;;;;;;;28.79;41.41;100865.78;5068971;28;20048;-69
2021/07/03 06:23:01;;;;;;;15.85;11.00;;;;;;;27.72;42.39;100864.38;5066402;28;20387;-69
2021/07/03 06:25:28;;;;;;;16.02;10.10;;;;;;;28.41;41.08;100871.66;5059263;28;20053;-69
2021/07/03 06:27:56;;;;;;;17.75;9.52;;;;;;;30.45;37.03;100865.78;5067372;28;20557;-70
2021/07/03 06:30:23;;;;;;;11.40;9.73;;;;;;;31.89;34.04;100865.06;5064051;28;20047;-69
2021/07/03 06:32:50;;;;;;;17.20;10.38;;;;;;;31.64;33.53;100867.78;5063903;28;20046;-68
2021/07/03 06:35:18;;;;;;;23.98;10.45;;;;;;;30.06;36.00;100859.41;5064322;28;20057;-68
2021/07/03 06:37:45;;;;;;;16.30;9.45;;;;;;;30.10;37.18;100863.34;5065696;28;20044;-69
2021/07/03 06:40:13;;;;;;;18.13;10.38;;;;;;;30.15;36.98;100868.19;5062687;28;20048;-70
2021/07/03 06:42:40;;;;;;;21.80;9.45;;;;;;;30.37;36.03;100866.84;5062202;28;20060;-68
2021/07/03 06:45:08;;;;;;;10.32;8.77;;;;;;;31.55;33.91;100871.81;5046243;28;20359;-68
2021/07/03 06:47:36;;;;;;;13.98;9.15;;;;;;;32.88;31.66;100873.94;5068017;28;20095;-70
2021/07/03 06:50:05;;;;;;;14.77;9.52;;;;;;;31.98;33.36;100868.31;5064198;28;20063;-69
2021/07/03 06:52:33;;;;;;;12.35;8.32;;;;;;;32.35;32.54;100866.44;5068106;28;20052;-69
2021/07/03 06:55:00;;;;;;;11.52;7.82;;;;;;;31.66;32.58;100867.56;5065023;28;20056;-68
2021/07/03 06:57:27;;;;;;;12.60;8.05;;;;;;;32.61;31.16;100867.19;5051542;28;20058;-70
2021/07/03 06:59:55;;;;;;;10.65;7.82;;;;;;;33.71;29.69;100858.59;5054935;28;20052;-69
2021/07/03 07:02:22;;;;;;;13.40;8.15;;;;;;;32.56;30.88;100870.59;5054404;28;20040;-70
2021/07/03 07:04:50;;;;;;;11.55;7.60;;;;;;;32.69;31.12;100861.41;5070328;28;20752;-70
2021/07/03 07:07:18;;;;;;;15.30;8.25;;;;;;;33.27;30.30;100856.16;5068770;28;20048;-70
2021/07/03 07:09:45;;;;;;;11.82;8.68;;;;;;;34.51;28.72;100863.41;5063955;28;20064;-69
2021/07/03 07:12:12;;;;;;;10.73;9.30;;;;;;;33.30;30.49;100857.59;5072217;28;20048;-68
2021/07/03 07:14:42;;;;;;;14.48;9.07;;;;;;;34.06;29.14;100861.34;5051359;28;20056;-70
2021/07/03 07:17:13;;;;;;;11.30;8.88;;;;;;;32.80;31.35;100863.34;5072916;28;20446;-68
2021/07/03 07:19:40;;;;;;;12.18;9.90;;;;;;;33.39;30.38;100858.91;5066238;28;20059;-71
2021/07/03 07:22:07;;;;;;;10.80;9.20;;;;;;;34.15;29.34;100859.91;5067897;28;20053;-69
2021/07/03 07:24:35;;;;;;;11.27;10.05;;;;;;;34.07;29.05;100857.53;5056285;28;20057;-69
2021/07/03 07:27:02;;;;;;;11.02;9.63;;;;;;;33.92;29.57;100860.72;5049893;28;20140;-70
2021/07/03 07:29:30;;;;;;;12.73;10.63;;;;;;;32.77;30.93;100863.81;5069383;28;20062;-69
2021/07/03 07:31:57;;;;;;;13.63;10.10;;;;;;;32.88;30.91;100856.75;5077201;28;20137;-69
2021/07/03 07:34:25;;;;;;;10.80;9.20;;;;;;;31.67;33.47;100859.16;5060815;28;20550;-70
2021/07/03 07:36:52;;;;;;;15.40;9.93;;;;;;;30.93;34.34;100854.47;5063964;28;20079;-70
2021/07/03 07:39:19;;;;;;;10.60;8.88;;;;;;;29.34;37.86;100850.25;5077115;28;20048;-70
2021/07/03 07:41:47;;;;;;;12.32;9.52;;;;;;;30.63;35.77;100851.50;5080613;28;20047;-71
2021/07/03 07:44:14;;;;;;;14.20;8.60;;;;;;;32.09;32.90;100856.66;5058803;28;20049;-70
2021/07/03 07:46:41;;;;;;;16.30;9.30;;;;;;;32.94;31.65;100851.22;5081167;28;20062;-70
2021/07/03 07:49:09;;;;;;;13.93;9.43;;;;;;;33.29;31.01;100845.03;5072966;28;20056;-69
2021/07/03 07:51:36;;;;;;;13.57;9.45;;;;;;;32.98;30.96;100846.97;5045253;28;20421;-70
2021/07/03 07:54:04;;;;;;;14.82;9.68;;;;;;;32.61;31.69;100851.66;5073430;28;20460;-70
2021/07/03 07:56:32;;;;;;;11.55;9.50;;;;;;;32.50;31.84;100852.44;5068699;28;20070;-70
2021/07/03 07:58:59;;;;;;;11.75;9.00;;;;;;;33.68;30.10;100850.88;5076557;28;20105;-69
2021/07/03 08:01:26;;;;;;;14.93;9.77;;;;;;;33.16;30.62;100846.06;5072445;28;20088;-70
2021/07/03 08:03:55;;;;;;;14.85;8.85;;;;;;;31.84;32.86;100836.81;5055683;28;20668;-70
2021/07/03 08:06:22;;;;;;;12.20;9.63;;;;;;;31.25;33.50;100834.38;5079304;28;20049;-69
2021/07/03 08:08:51;;;;;;;13.43;10.00;;;;;;;30.30;35.64;100830.72;5078372;28;20067;-68
2021/07/03 08:11:18;;;;;;;14.25;9.48;;;;;;;31.45;33.86;100836.13;5079179;28;20499;-70
2021/07/03 08:13:46;;;;;;;13.68;9.68;;;;;;;32.01;32.80;100837.91;5077375;28;20419;-68
2021/07/03 08:16:14;;;;;;;13.45;10.05;;;;;;;31.81;32.68;100839.97;5056035;28;20091;-70
2021/07/03 08:18:43;;;;;;;9.25;8.20;;;;;;;30.01;36.49;100835.59;5078743;28;20075;-69
2021/07/03 08:21:11;;;;;;;11.90;9.80;;;;;;;28.99;38.23;100836.03;5068605;28;20062;-70
2021/07/03 08:23:38;;;;;;;16.05;9.80;;;;;;;27.90;40.17;100842.22;5067647;28;20500;-70
2021/07/03 08:26:06;;;;;;;11.10;9.27;;;;;;;26.13;43.51;100838.31;5065007;28;20056;-69
2021/07/03 08:28:33;;;;;;;11.98;9.65;;;;;;;24.83;46.65;100847.50;5064704;28;20056;-69
2021/07/03 08:31:00;;;;;;;12.13;9.23;;;;;;;27.90;40.76;100841.38;5061699;28;20546;-69
2021/07/03 08:33:28;;;;;;;11.18;8.57;;;;;;;30.53;35.11;100830.19;5050190;28;20055;-69
2021/07/03 08:35:55;;;;;;;9.80;8.57;;;;;;;29.86;36.30;100839.63;5068710;28;20391;-69
2021/07/03 08:38:24;;;;;;;12.20;7.97;;;;;;;29.48;38.01;100845.66;5050444;28;20044;-68
2021/07/03 08:40:51;;;;;;;13.00;8.00;;;;;;;29.51;36.92;100834.41;5067965;28;20057;-71
2021/07/03 08:43:18;;;;;;;17.70;7.93;;;;;;;28.02;39.32;100839.81;5050599;28;20049;-69
2021/07/03 08:45:46;;;;;;;9.57;7.47;;;;;;;27.06;41.45;100834.00;5067359;28;20059;-68
2021/07/03 08:48:18;;;;;;;16.63;9.25;;;;;;;25.45;45.06;100832.06;5069160;28;20062;-69
2021/07/03 08:50:46;;;;;;;17.40;9.25;;;;;;;26.04;45.38;100833.19;5065429;28;20055;-69
2021/07/03 08:53:13;;;;;;;12.80;8.93;;;;;;;26.84;42.67;100829.59;5073415;28;20048;-69
2021/07/03 08:55:41;;;;;;;12.05;8.57;;;;;;;27.33;41.93;100827.00;5067717;28;20057;-68
2021/07/03 08:58:10;;;;;;;12.48;8.05;;;;;;;27.57;41.26;100825.75;5066861;28;20410;-69
2021/07/03 09:00:42;;;;;;;10.32;7.68;;;;;;;27.33;41.71;100823.44;5066842;28;20055;-70
2021/07/03 09:03:16;;;;;;;10.45;7.10;;;;;;;27.47;41.18;100826.09;5075534;28;20052;-69
2021/07/03 09:05:54;;;;;;;14.98;6.82;;;;;;;26.90;42.39;100818.06;5070524;28;20052;-69
2021/07/03 09:08:23;;;;;;;14.35;7.60;;;;;;;26.46;42.80;100821.72;5067614;28;20055;-68
2021/07/03 09:11:04;;;;;;;8.65;6.90;;;;;;;25.95;44.29;100824.34;5048497;28;20067;-68
2021/07/03 09:13:33;;;;;;;13.40;8.18;;;;;;;26.52;42.78;100815.53;5067728;28;20082;-69
2021/07/03 09:16:01;;;;;;;13.05;7.65;;;;;;;25.63;44.40;100807.47;5070627;28;20055;-69
2021/07/03 09:18:30;;;;;;;12.10;7.18;;;;;;;26.75;42.04;100813.53;5064606;28;20056;-69
2021/07/03 09:21:01;;;;;;;9.48;7.32;;;;;;;25.59;43.72;100806.16;5047200;28;20552;-70
2021/07/03 09:23:37;;;;;;;14.43;7.95;;;;;;;26.21;43.37;100808.53;5043744;28;20047;-71
2021/07/03 09:26:06;;;;;;;12.27;7.47;;;;;;;26.48;43.54;100796.22;5063177;28;20050;-68
2021/07/03 09:28:39;;;;;;;11.02;8.00;;;;;;;26.46;43.18;100802.81;5064887;28;20050;-69
2021/07/03 09:31:09;;;;;;;10.00;7.40;;;;;;;26.15;43.27;100809.25;5049098;28;20066;-70
2021/07/03 09:33:37;;;;;;;10.80;7.97;;;;;;;26.18;43.47;100800.78;5075933;28;20047;-69
2021/07/03 09:36:05;;;;;;;8.35;7.05;;;;;;;26.19;43.19;100801.63;5065921;28;20340;-69
2021/07/03 09:38:38;;;;;;;12.30;7.50;;;;;;;25.59;44.78;100789.16;5058932;28;20052;-70
2021/07/03 09:41:16;;;;;;;10.02;7.93;;;;;;;25.63;45.28;100798.56;5073927;28;20048;-69
2021/07/03 09:43:52;;;;;;;11.48;8.02;;;;;;;26.43;43.71;100793.25;5073571;28;20054;-68
2021/07/03 09:46:33;;;;;;;12.13;7.65;;;;;;;26.28;42.84;100792.41;5066908;28;20055;-69
2021/07/03 09:49:02;;;;;;;12.00;7.70;;;;;;;26.23;43.06;100790.28;5071939;28;20048;-70
2021/07/03 09:51:33;;;;;;;11.25;8.05;;;;;;;26.24;43.35;100791.94;5076764;28;20055;-68
2021/07/03 09:54:01;;;;;;;10.15;7.47;;;;;;;27.19;41.53;100790.06;5054513;28;20056;-70
2021/07/03 09:56:28;;;;;;;10.63;7.93;;;;;;;27.06;41.24;100782.66;5065954;28;20094;-69
2021/07/03 09:58:56;;;;;;;11.73;7.80;;;;;;;27.05;41.94;100794.50;5066374;28;20659;-69
2021/07/03 10:01:23;;;;;;;7.30;5.97;;;;;;;26.46;42.16;100792.03;5074516;28;20070;-70
2021/07/03 10:03:52;;;;;;;7.20;5.60;;;;;;;26.17;41.67;100784.81;5073966;28;20052;-69
2021/07/03 10:06:28;;;;;;;9.20;5.90;;;;;;;25.66;42.13;100790.91;5083448;28;20127;-69
2021/07/03 10:09:00;;;;;;;10.63;6.22;;;;;;;26.26;42.45;100784.50;5076547;28;20062;-70
2021/07/03 10:11:29;;;;;;;11.13;6.65;;;;;;;26.45;42.41;100784.97;5056218;28;20123;-69
2021/07/03 10:14:01;;;;;;;9.20;7.78;;;;;;;26.23;42.17;100784.88;5056604;28;20550;-69
2021/07/03 10:16:30;;;;;;;10.90;6.70;;;;;;;26.29;42.22;100787.84;5068678;28;20065;-69
2021/07/03 10:19:14;;;;;;;8.05;6.28;;;;;;;25.88;43.07;100785.66;5058739;28;20717;-69
2021/07/03 10:21:45;;;;;;;10.82;6.57;;;;;;;25.26;44.55;100775.97;5070439;28;20051;-69
2021/07/03 10:24:22;;;;;;;12.18;7.30;;;;;;;25.42;44.26;100775.00;5062391;28;20053;-71
2021/07/03 10:26:53;;;;;;;10.20;6.65;;;;;;;25.60;45.31;100772.78;5047743;28;20048;-69
2021/07/03 10:29:24;;;;;;;11.68;8.07;;;;;;;26.35;43.42;100765.50;5058465;28;20049;-69
2021/07/03 10:31:52;;;;;;;9.63;6.85;;;;;;;26.61;42.56;100776.59;5051054;28;20066;-70
2021/07/03 10:34:32;;;;;;;19.75;6.15;;;;;;;26.14;40.79;100774.38;5066759;28;20043;-70
2021/07/03 10:37:18;;;;;;;9.50;5.63;;;;;;;25.52;40.42;100775.56;5070494;28;20059;-69
2021/07/03 10:39:45;;;;;;;8.60;5.88;;;;;;;24.31;44.04;100775.41;5074773;28;20063;-69
2021/07/03 10:42:12;;;;;;;18.63;6.78;;;;;;;24.44;44.05;100767.66;5037914;28;20053;-69
2021/07/03 10:44:41;;;;;;;16.27;6.95;;;;;;;24.99;42.43;100766.56;5069960;28;20127;-71
2021/07/03 10:47:11;;;;;;;13.50;9.25;;;;;;;25.49;42.13;100763.31;5062464;28;20052;-68
2021/07/03 10:49:41;;;;;;;10.40;6.90;;;;;;;25.17;43.07;100764.47;5054814;28;20060;-69
2021/07/03 10:52:16;;;;;;;8.73;6.22;;;;;;;24.45;45.08;100759.41;5053031;28;20055;-70
2021/07/03 10:54:44;;;;;;;8.75;6.75;;;;;;;24.02;46.62;100763.47;5070877;28;20082;-70
2021/07/03 10:57:12;;;;;;;11.48;5.75;;;;;;;24.25;45.60;100766.22;5050355;28;20125;-69
2021/07/03 10:59:42;;;;;;;7.95;5.97;;;;;;;23.96;44.71;100764.16;5070226;28;20441;-69
2021/07/03 11:02:16;;;;;;;11.18;5.60;;;;;;;23.80;45.02;100766.91;5056698;28;20051;-72
2021/07/03 11:04:49;;;;;;;9.52;6.30;;;;;;;24.19;44.49;100765.06;5031123;28;20044;-70
2021/07/03 11:07:24;;;;;;;10.00;5.85;;;;;;;24.97;43.60;100752.47;5074049;28;20045;-69
2021/07/03 11:10:05;;;;;;;6.47;5.47;;;;;;;25.57;42.64;100756.97;5038133;28;20060;-70
2021/07/03 11:12:43;;;;;;;10.73;6.55;;;;;;;25.36;42.89;100754.19;5073534;28;20058;-70
2021/07/03 11:15:20;;;;;;;8.73;6.75;;;;;;;24.53;44.61;100749.59;5052413;28;20041;-72
2021/07/03 11:17:48;;;;;;;13.68;6.80;;;;;;;24.38;46.37;100744.97;5053948;28;20355;-68